createdAt,value
2022-10-29T00:01:14.398Z,100122.72
2022-10-29T00:03:43.007Z,100123.47
2022-10-29T00:06:13.611Z,100131.19
2022-10-29T00:08:43.002Z,100129.06
2022-10-29T00:11:14.280Z,100092.19
2022-10-29T00:13:43.595Z,100104.53
2022-10-29T00:16:14.201Z,100116.13
2022-10-29T00:18:42.956Z,100111.22
2022-10-29T00:21:18.457Z,100106.84
2022-10-29T00:23:46.916Z,100088.97
2022-10-29T00:26:15.722Z,100058.31
2022-10-29T00:28:44.194Z,100052.03
2022-10-29T00:31:15.153Z,100032.09
2022-10-29T00:33:43.702Z,99987.31
2022-10-29T00:36:16.227Z,99970.97
2022-10-29T00:38:45.205Z,99977.34
2022-10-29T00:41:16.813Z,99956.44
2022-10-29T00:43:49.439Z,99952.00
2022-10-29T00:46:23.845Z,99959.31
2022-10-29T00:48:56.781Z,99957.66
2022-10-29T00:51:28.641Z,99957.34
2022-10-29T00:54:00.761Z,99932.47
2022-10-29T00:56:30.983Z,99927.16
2022-10-29T00:58:59.786Z,99913.75
2022-10-29T01:01:28.543Z,99900.66
2022-10-29T01:04:00.250Z,99906.16
2022-10-29T01:06:32.163Z,99917.91
2022-10-29T01:09:00.592Z,99916.41
2022-10-29T01:11:45.846Z,99921.88
2022-10-29T01:14:24.476Z,99921.53
2022-10-29T01:17:01.389Z,99931.81
2022-10-29T01:19:51.706Z,99942.25
2022-10-29T01:22:27.105Z,99936.16
2022-10-29T01:25:10.219Z,99919.88
2022-10-29T01:27:53.251Z,99919.75
2022-10-29T01:30:34.201Z,99920.25
2022-10-29T01:33:11.389Z,99929.50
2022-10-29T01:35:48.704Z,99934.09
2022-10-29T01:38:26.296Z,99942.63
2022-10-29T01:41:01.682Z,99949.59
2022-10-29T01:43:35.863Z,99951.31
2022-10-29T01:46:11.043Z,99944.28
2022-10-29T01:48:45.692Z,99937.66
2022-10-29T01:51:21.471Z,99931.19
2022-10-29T01:53:51.213Z,99936.94
2022-10-29T01:56:19.709Z,99924.38
2022-10-29T01:58:51.385Z,99933.84
2022-10-29T02:01:36.007Z,99925.53
2022-10-29T02:04:22.340Z,99910.25
2022-10-29T02:07:00.561Z,99898.72
2022-10-29T02:09:33.347Z,99910.09
2022-10-29T02:12:09.880Z,99909.34
2022-10-29T02:14:41.960Z,99885.63
2022-10-29T02:17:10.480Z,99892.75
2022-10-29T02:19:40.450Z,99895.19
2022-10-29T02:22:09.109Z,99911.13
2022-10-29T02:24:37.539Z,99896.22
2022-10-29T02:27:05.988Z,99901.03
2022-10-29T02:29:34.451Z,99911.13
2022-10-29T02:32:02.885Z,99890.88
2022-10-29T02:34:31.305Z,99909.72
2022-10-29T02:37:01.131Z,99896.63
2022-10-29T02:39:30.874Z,99908.38
2022-10-29T02:41:59.344Z,99917.56
2022-10-29T02:44:27.758Z,99916.47
2022-10-29T02:46:56.202Z,99904.88
2022-10-29T02:49:24.730Z,99934.88
2022-10-29T02:51:53.209Z,99937.97
2022-10-29T02:54:23.291Z,99944.97
2022-10-29T02:56:51.910Z,99944.66
2022-10-29T02:59:20.377Z,99944.06
2022-10-29T03:01:48.926Z,99964.13
2022-10-29T03:04:17.720Z,99964.31
2022-10-29T03:06:46.130Z,99970.22
2022-10-29T03:09:14.582Z,99984.78
2022-10-29T03:11:44.468Z,99995.88
2022-10-29T03:14:12.901Z,99997.97
2022-10-29T03:16:41.403Z,99970.66
2022-10-29T03:19:10.199Z,99939.31
2022-10-29T03:21:38.861Z,99889.22
2022-10-29T03:24:07.975Z,99892.16
2022-10-29T03:26:36.379Z,99888.06
2022-10-29T03:29:06.373Z,99886.91
2022-10-29T03:31:34.814Z,99893.06
2022-10-29T03:34:03.617Z,99877.81
2022-10-29T03:36:32.118Z,99908.13
2022-10-29T03:39:00.556Z,99938.38
2022-10-29T03:41:28.969Z,99971.94
2022-10-29T03:43:57.628Z,99995.06
2022-10-29T03:46:27.424Z,99990.94
2022-10-29T03:48:55.843Z,99990.94
2022-10-29T03:51:24.290Z,99995.56
2022-10-29T03:53:52.814Z,99986.94
2022-10-29T03:56:21.506Z,99993.56
2022-10-29T03:58:49.914Z,99982.91
2022-10-29T04:01:18.434Z,99980.91
2022-10-29T04:03:48.433Z,99969.69
2022-10-29T04:06:18.431Z,99961.75
2022-10-29T04:08:46.851Z,99948.84
2022-10-29T04:11:15.673Z,99930.97
2022-10-29T04:13:44.104Z,99935.91
2022-10-29T04:16:12.586Z,99948.63
2022-10-29T04:18:41.013Z,99951.13
2022-10-29T04:29:36.421Z,99958.06
2022-10-29T04:32:05.141Z,99965.00
2022-10-29T04:34:33.599Z,99937.22
2022-10-29T04:37:03.417Z,99940.69
2022-10-29T04:39:31.861Z,99937.16
2022-10-29T04:42:00.303Z,99949.09
2022-10-29T04:44:28.707Z,99931.22
2022-10-29T04:46:57.458Z,99953.19
2022-10-29T04:49:26.146Z,99939.78
2022-10-29T04:51:54.636Z,99923.25
2022-10-29T04:54:24.493Z,99925.25
2022-10-29T04:56:53.174Z,99955.97
2022-10-29T04:59:21.788Z,99965.41
2022-10-29T05:04:59.894Z,100014.31
2022-10-29T05:07:28.388Z,100030.66
2022-10-29T05:09:58.273Z,100021.72
2022-10-29T05:12:26.766Z,100029.00
2022-10-29T05:14:55.153Z,100036.75
2022-10-29T05:17:23.583Z,100041.59
2022-10-29T05:19:51.992Z,100029.72
2022-10-29T05:22:20.577Z,100008.88
2022-10-29T05:24:49.021Z,100016.84
2022-10-29T05:27:19.362Z,99992.69
2022-10-29T05:29:47.927Z,99972.16
2022-10-29T05:32:16.323Z,99989.66
2022-10-29T05:34:44.729Z,100006.16
2022-10-29T05:37:13.100Z,100023.38
2022-10-29T05:39:41.508Z,100042.56
2022-10-29T05:42:09.926Z,100048.03
2022-10-29T05:44:39.889Z,100057.97
2022-10-29T05:47:08.412Z,100060.84
2022-10-29T05:49:36.924Z,100035.88
2022-10-29T05:52:05.888Z,100063.72
2022-10-29T05:54:34.353Z,100045.09
2022-10-29T05:57:02.920Z,100021.53
2022-10-29T05:59:33.689Z,100008.81
2022-10-29T06:02:04.012Z,99983.81
2022-10-29T06:04:32.560Z,99972.56
2022-10-29T06:07:02.319Z,99985.63
2022-10-29T06:09:30.771Z,99989.25
2022-10-29T06:11:59.263Z,100011.78
2022-10-29T06:14:27.657Z,100019.06
2022-10-29T06:16:56.083Z,100034.13
2022-10-29T06:19:26.007Z,100059.63
2022-10-29T06:21:57.825Z,100047.03
2022-10-29T06:24:29.066Z,100065.03
2022-10-29T06:26:57.454Z,100073.75
2022-10-29T06:29:25.853Z,100086.06
2022-10-29T06:31:54.360Z,100106.50
2022-10-29T06:34:22.747Z,100084.00
2022-10-29T06:36:52.564Z,100108.59
2022-10-29T06:39:21.005Z,100109.00
2022-10-29T06:41:49.376Z,100114.91
2022-10-29T06:44:20.411Z,100132.19
2022-10-29T06:46:48.867Z,100135.31
2022-10-29T06:49:17.308Z,100122.53
2022-10-29T06:51:45.750Z,100103.50
2022-10-29T06:54:15.999Z,100110.31
2022-10-29T06:56:44.431Z,100095.78
2022-10-29T06:59:13.262Z,100092.38
2022-10-29T07:01:41.755Z,100095.69
2022-10-29T07:04:10.193Z,100124.97
2022-10-29T07:06:38.712Z,100109.00
2022-10-29T07:09:07.316Z,100076.53
2022-10-29T07:11:37.149Z,100108.97
2022-10-29T07:14:06.108Z,100120.19
2022-10-29T07:16:34.847Z,100102.53
2022-10-29T07:19:03.277Z,100060.28
2022-10-29T07:21:31.926Z,100097.47
2022-10-29T07:24:00.348Z,100113.50
2022-10-29T07:26:28.756Z,100100.94
2022-10-29T07:28:59.057Z,100074.88
2022-10-29T07:31:27.514Z,100092.47
2022-10-29T07:33:56.975Z,100093.53
2022-10-29T07:36:25.753Z,100102.78
2022-10-29T07:38:54.188Z,100100.84
2022-10-29T07:41:22.584Z,100117.88
2022-10-29T07:43:51.001Z,100114.91
2022-10-29T07:46:20.816Z,100119.38
2022-10-29T07:48:49.244Z,100137.19
2022-10-29T07:51:17.669Z,100150.19
2022-10-29T07:53:46.074Z,100164.34
2022-10-29T07:56:14.483Z,100161.69
2022-10-29T07:58:42.941Z,100160.50
2022-10-29T08:01:11.737Z,100170.00
2022-10-29T08:03:41.669Z,100186.25
2022-10-29T08:06:10.124Z,100184.09
2022-10-29T08:08:38.637Z,100170.78
2022-10-29T08:11:07.252Z,100173.63
2022-10-29T08:13:36.015Z,100185.41
2022-10-29T08:16:04.475Z,100211.03
2022-10-29T08:18:32.921Z,100212.19
2022-10-29T08:21:06.101Z,100215.59
2022-10-29T08:23:34.540Z,100212.72
2022-10-29T08:26:03.056Z,100212.84
2022-10-29T08:28:34.793Z,100214.75
2022-10-29T08:31:04.715Z,100231.84
2022-10-29T08:33:33.189Z,100240.09
2022-10-29T08:36:01.599Z,100248.41
2022-10-29T08:38:31.581Z,100235.69
2022-10-29T08:41:19.864Z,100228.56
2022-10-29T08:44:06.057Z,100219.41
2022-10-29T08:46:44.051Z,100194.91
2022-10-29T08:49:18.449Z,100178.03
2022-10-29T08:51:54.628Z,100181.88
2022-10-29T08:54:31.787Z,100195.56
2022-10-29T08:57:07.877Z,100196.44
2022-10-29T08:59:43.704Z,100206.03
2022-10-29T09:02:18.208Z,100208.41
2022-10-29T09:04:47.104Z,100205.63
2022-10-29T09:07:30.459Z,100203.72
2022-10-29T09:10:10.202Z,100212.13
2022-10-29T09:12:52.401Z,100182.94
2022-10-29T09:15:35.156Z,100184.03
2022-10-29T09:18:17.542Z,100177.19
2022-10-29T09:20:54.309Z,100172.94
2022-10-29T09:23:31.608Z,100144.53
2022-10-29T09:26:04.578Z,100156.31
2022-10-29T09:28:49.311Z,100134.59
2022-10-29T09:31:27.371Z,100147.84
2022-10-29T09:34:04.002Z,100140.72
2022-10-29T09:36:33.384Z,100119.78
2022-10-29T09:39:04.372Z,100114.66
2022-10-29T09:41:36.478Z,100103.53
2022-10-29T09:44:12.848Z,100114.78
2022-10-29T09:46:53.254Z,100131.38
2022-10-29T09:49:36.280Z,100123.75
2022-10-29T09:52:09.296Z,100142.34
2022-10-29T09:54:38.134Z,100140.22
2022-10-29T09:57:19.179Z,100152.69
2022-10-29T09:59:52.373Z,100159.66
2022-10-29T10:02:29.414Z,100164.44
2022-10-29T10:05:05.047Z,100165.97
2022-10-29T10:07:33.497Z,100165.94
2022-10-29T10:10:03.044Z,100181.16
2022-10-29T10:12:46.781Z,100199.56
2022-10-29T10:15:21.805Z,100202.38
2022-10-29T10:18:00.116Z,100203.47
2022-10-29T10:20:38.986Z,100203.63
2022-10-29T10:23:27.862Z,100189.69
2022-10-29T10:26:01.981Z,100180.59
2022-10-29T10:28:35.788Z,100188.88
2022-10-29T10:31:11.877Z,100180.72
2022-10-29T10:33:50.524Z,100183.84
2022-10-29T10:36:21.863Z,100173.59
2022-10-29T10:38:52.789Z,100168.94
2022-10-29T10:41:25.861Z,100162.97
2022-10-29T10:44:00.463Z,100146.00
2022-10-29T10:46:32.287Z,100159.00
2022-10-29T10:49:04.528Z,100175.00
2022-10-29T10:51:34.579Z,100170.47
2022-10-29T10:54:25.091Z,100173.75
2022-10-29T10:56:58.883Z,100176.13
2022-10-29T10:59:39.905Z,100149.00
2022-10-29T11:02:21.186Z,100157.16
2022-10-29T11:04:54.256Z,100157.91
2022-10-29T11:07:25.051Z,100156.28
2022-10-29T11:09:56.920Z,100158.56
2022-10-29T11:12:32.694Z,100176.31
2022-10-29T11:15:08.161Z,100164.63
2022-10-29T11:17:53.757Z,100192.34
2022-10-29T11:20:26.347Z,100200.66
2022-10-29T11:23:06.353Z,100210.59
2022-10-29T11:25:42.796Z,100216.09
2022-10-29T11:28:23.623Z,100214.56
2022-10-29T11:30:58.812Z,100220.69
2022-10-29T11:33:38.778Z,100229.56
2022-10-29T11:36:16.181Z,100224.97
2022-10-29T11:38:50.460Z,100234.63
2022-10-29T11:41:27.030Z,100246.28
2022-10-29T11:43:56.234Z,100232.69
2022-10-29T11:46:34.851Z,100223.88
2022-10-29T11:49:16.049Z,100206.78
2022-10-29T11:51:53.028Z,100181.09
2022-10-29T11:54:37.969Z,100193.81
2022-10-29T11:57:13.107Z,100199.13
2022-10-29T11:59:57.303Z,100212.06
2022-10-29T12:02:41.549Z,100212.72
2022-10-29T12:05:21.133Z,100190.50
2022-10-29T12:08:08.696Z,100208.41
2022-10-29T12:10:47.407Z,100203.28
2022-10-29T12:13:29.749Z,100196.00
2022-10-29T12:16:12.326Z,100182.03
2022-10-29T12:18:49.839Z,100174.72
2022-10-29T12:21:25.771Z,100189.53
2022-10-29T12:24:03.809Z,100180.72
2022-10-29T12:26:39.593Z,100156.28
2022-10-29T12:29:18.296Z,100115.25
2022-10-29T12:31:56.038Z,100119.03
2022-10-29T12:34:32.375Z,100114.19
2022-10-29T12:37:11.144Z,100104.97
2022-10-29T12:39:46.614Z,100094.03
2022-10-29T12:42:20.419Z,100087.63
2022-10-29T12:45:03.500Z,100073.81
2022-10-29T12:47:36.770Z,100077.94
2022-10-29T12:50:24.760Z,100085.66
2022-10-29T12:53:03.785Z,100073.59
2022-10-29T12:55:33.894Z,100061.41
2022-10-29T12:58:41.033Z,100054.06
2022-10-29T13:02:10.682Z,100050.28
2022-10-29T13:04:35.723Z,100043.19
2022-10-29T13:07:23.793Z,100042.03
2022-10-29T13:10:31.271Z,100057.22
2022-10-29T13:13:05.675Z,100061.50
2022-10-29T13:15:39.392Z,100050.09
2022-10-29T13:18:20.501Z,100055.41
2022-10-29T13:20:50.921Z,100052.94
2022-10-29T13:23:43.045Z,100044.72
2022-10-29T13:26:11.692Z,100037.97
2022-10-29T13:28:51.900Z,100062.72
2022-10-29T13:31:49.532Z,100072.19
2022-10-29T13:34:50.995Z,100060.47
2022-10-29T13:37:39.439Z,100070.75
2022-10-29T13:40:41.632Z,100060.44
2022-10-29T13:43:18.472Z,100045.00
2022-10-29T13:45:51.832Z,100046.00
2022-10-29T13:48:27.666Z,100045.75
2022-10-29T13:50:58.851Z,100033.63
2022-10-29T13:53:39.582Z,100022.28
2022-10-29T13:56:18.729Z,100027.69
2022-10-29T13:58:52.346Z,100025.88
2022-10-29T14:01:24.102Z,100012.38
2022-10-29T14:04:02.201Z,100024.88
2022-10-29T14:06:34.731Z,100019.25
2022-10-29T14:09:14.357Z,100015.28
2022-10-29T14:11:50.093Z,100023.38
2022-10-29T14:14:27.876Z,100013.44
2022-10-29T14:17:18.158Z,100003.56
2022-10-29T14:19:48.567Z,100009.72
2022-10-29T14:22:22.423Z,100026.53
2022-10-29T14:24:50.859Z,100016.72
2022-10-29T14:27:20.828Z,100023.31
2022-10-29T14:29:51.758Z,100034.56
2022-10-29T14:32:23.294Z,100036.72
2022-10-29T14:34:53.027Z,100044.41
2022-10-29T14:37:28.300Z,100023.34
2022-10-29T14:40:00.842Z,100043.56
2022-10-29T14:42:33.583Z,100047.97
2022-10-29T14:45:05.053Z,100053.19
2022-10-29T14:47:35.767Z,100051.78
2022-10-29T14:50:07.048Z,100063.41
2022-10-29T14:52:39.633Z,100061.78
2022-10-29T14:55:10.388Z,100056.81
2022-10-29T14:57:43.939Z,100078.38
2022-10-29T15:00:24.579Z,100090.28
2022-10-29T15:02:56.090Z,100095.22
2022-10-29T15:05:27.134Z,100097.00
2022-10-29T15:08:06.733Z,100099.41
2022-10-29T15:10:47.164Z,100092.63
2022-10-29T15:13:23.847Z,100101.50
2022-10-29T15:15:56.579Z,100118.03
2022-10-29T15:18:26.596Z,100116.84
2022-10-29T15:20:56.423Z,100121.97
2022-10-29T15:23:28.148Z,100121.94
2022-10-29T15:26:02.839Z,100148.84
2022-10-29T15:28:39.106Z,100152.81
2022-10-29T15:31:08.591Z,100156.06
2022-10-29T15:33:38.400Z,100153.69
2022-10-29T15:36:07.468Z,100170.34
2022-10-29T15:39:19.124Z,100168.94
2022-10-29T15:41:50.308Z,100167.97
2022-10-29T15:44:41.295Z,100178.84
2022-10-29T15:47:27.969Z,100182.25
2022-10-29T15:49:56.567Z,100178.41
2022-10-29T15:52:32.293Z,100170.97
2022-10-29T15:55:01.282Z,100170.25
2022-10-29T15:57:31.567Z,100168.19
2022-10-29T16:00:05.484Z,100170.59
2022-10-29T16:02:33.886Z,100162.19
2022-10-29T16:05:02.408Z,100147.69
2022-10-29T16:07:31.006Z,100149.88
2022-10-29T16:10:01.809Z,100150.59
2022-10-29T16:12:30.547Z,100142.81
2022-10-29T16:14:59.001Z,100130.09
2022-10-29T16:17:29.577Z,100139.59
2022-10-29T16:19:58.001Z,100139.94
2022-10-29T16:22:29.697Z,100132.97
2022-10-29T16:24:58.181Z,100130.56
2022-10-29T16:27:26.689Z,100142.91
2022-10-29T16:29:55.176Z,100144.03
2022-10-29T16:32:25.408Z,100162.78
2022-10-29T16:34:55.278Z,100158.09
2022-10-29T16:37:23.681Z,100162.38
2022-10-29T16:39:52.364Z,100163.78
2022-10-29T16:42:31.805Z,100161.66
2022-10-29T16:45:00.223Z,100145.53
2022-10-29T16:47:28.804Z,100163.03
2022-10-29T16:49:58.744Z,100177.13
2022-10-29T16:52:29.562Z,100156.91
2022-10-29T16:54:58.335Z,100164.88
2022-10-29T16:57:26.918Z,100154.16
2022-10-29T16:59:55.331Z,100168.50
2022-10-29T17:02:23.919Z,100179.53
2022-10-29T17:04:52.534Z,100180.00
2022-10-29T17:07:22.345Z,100179.41
2022-10-29T17:09:50.873Z,100185.78
2022-10-29T17:12:19.350Z,100198.03
2022-10-29T17:14:48.043Z,100198.69
2022-10-29T17:17:16.474Z,100199.69
2022-10-29T17:19:44.883Z,100199.75
2022-10-29T17:22:16.083Z,100210.53
2022-10-29T17:24:46.506Z,100214.53
2022-10-29T17:27:15.568Z,100229.56
2022-10-29T17:29:44.002Z,100249.34
2022-10-29T17:32:12.412Z,100253.81
2022-10-29T17:34:40.856Z,100261.66
2022-10-29T17:37:09.334Z,100273.50
2022-10-29T17:39:37.876Z,100259.66
2022-10-29T17:42:07.810Z,100272.06
2022-10-29T17:44:36.373Z,100278.06
2022-10-29T17:47:05.063Z,100279.88
2022-10-29T17:49:33.584Z,100277.75
2022-10-29T17:52:02.088Z,100274.09
2022-10-29T17:54:30.543Z,100280.16
2022-10-29T17:56:59.437Z,100277.22
2022-10-29T17:59:29.295Z,100283.09
2022-10-29T18:01:57.871Z,100280.69
2022-10-29T18:04:26.473Z,100290.69
2022-10-29T18:06:56.195Z,100294.09
2022-10-29T18:09:24.720Z,100301.34
2022-10-29T18:11:53.184Z,100294.78
2022-10-29T18:14:21.631Z,100304.94
2022-10-29T18:16:51.700Z,100306.59
2022-10-29T18:19:20.225Z,100310.06
2022-10-29T18:21:48.631Z,100308.41
2022-10-29T18:24:18.291Z,100308.41
2022-10-29T18:26:50.606Z,100302.44
2022-10-29T18:29:19.051Z,100306.91
2022-10-29T18:31:47.502Z,100315.00
2022-10-29T18:34:17.392Z,100308.88
2022-10-29T18:36:47.635Z,100312.47
2022-10-29T18:39:16.158Z,100300.97
2022-10-29T18:41:44.577Z,100322.94
2022-10-29T18:44:12.992Z,100319.44
2022-10-29T18:46:41.507Z,100319.56
2022-10-29T18:49:11.655Z,100318.19
2022-10-29T18:51:41.555Z,100319.47
2022-10-29T18:54:11.412Z,100322.22
2022-10-29T18:56:40.625Z,100325.31
2022-10-29T18:59:10.952Z,100325.56
2022-10-29T19:01:39.729Z,100329.56
2022-10-29T19:04:14.907Z,100327.66
2022-10-29T19:06:45.157Z,100336.69
2022-10-29T19:09:13.727Z,100342.09
2022-10-29T19:11:42.428Z,100342.91
2022-10-29T19:14:14.302Z,100324.28
2022-10-29T19:16:42.872Z,100360.16
2022-10-29T19:19:14.404Z,100350.94
2022-10-29T19:21:45.096Z,100359.59
2022-10-29T19:24:15.006Z,100354.69
2022-10-29T19:26:43.780Z,100356.09
2022-10-29T19:29:12.657Z,100349.69
2022-10-29T19:31:41.866Z,100343.44
2022-10-29T19:34:10.517Z,100339.81
2022-10-29T19:36:40.389Z,100346.41
2022-10-29T19:39:10.758Z,100350.28
2022-10-29T19:41:39.532Z,100351.66
2022-10-29T19:44:07.998Z,100356.50
2022-10-29T19:46:36.416Z,100346.81
2022-10-29T19:49:04.901Z,100345.66
2022-10-29T19:51:33.337Z,100349.88
2022-10-29T19:54:04.165Z,100356.41
2022-10-29T19:56:34.110Z,100357.53
2022-10-29T19:59:04.000Z,100364.44
2022-10-29T20:01:32.829Z,100355.81
2022-10-29T20:04:01.343Z,100370.28
2022-10-29T20:06:29.815Z,100368.63
2022-10-29T20:08:58.249Z,100364.75
2022-10-29T20:11:26.722Z,100375.88
2022-10-29T20:13:56.750Z,100375.84
2022-10-29T20:16:25.211Z,100364.34
2022-10-29T20:18:53.777Z,100374.75
2022-10-29T20:21:22.652Z,100375.59
2022-10-29T20:23:51.116Z,100362.84
2022-10-29T20:26:20.846Z,100366.97
2022-10-29T20:28:49.302Z,100385.03
2022-10-29T20:31:32.190Z,100384.63
2022-10-29T20:34:03.374Z,100395.03
2022-10-29T20:36:33.982Z,100390.19
2022-10-29T20:39:03.928Z,100393.41
2022-10-29T20:41:32.832Z,100374.22
2022-10-29T20:44:02.870Z,100387.69
2022-10-29T20:46:32.830Z,100376.72
2022-10-29T20:49:01.654Z,100385.19
2022-10-29T20:51:35.340Z,100376.16
2022-10-29T20:54:05.287Z,100385.03
2022-10-29T20:56:33.864Z,100394.66
2022-10-29T20:59:03.860Z,100396.44
2022-10-29T21:01:33.906Z,100394.66
2022-10-29T21:04:02.504Z,100380.56
2022-10-29T21:06:31.057Z,100380.56
2022-10-29T21:09:00.180Z,100391.84
2022-10-29T21:11:30.010Z,100382.13
2022-10-29T21:13:59.490Z,100373.94
2022-10-29T21:16:29.243Z,100394.66
2022-10-29T21:19:01.160Z,100384.75
2022-10-29T21:21:31.245Z,100387.84
2022-10-29T21:24:00.203Z,100387.41
2022-10-29T21:26:29.961Z,100380.75
2022-10-29T21:28:59.600Z,100388.41
2022-10-29T21:31:28.189Z,100392.56
2022-10-29T21:33:58.660Z,100386.31
2022-10-29T21:36:27.167Z,100379.47
2022-10-29T21:38:55.832Z,100395.59
2022-10-29T21:41:24.317Z,100391.44
2022-10-29T21:43:52.851Z,100388.69
2022-10-29T21:46:21.398Z,100388.13
2022-10-29T21:48:49.942Z,100397.00
2022-10-29T21:51:19.794Z,100397.13
2022-10-29T21:53:48.303Z,100407.97
2022-10-29T21:56:16.944Z,100408.63
2022-10-29T21:58:46.178Z,100413.72
2022-10-29T22:01:16.471Z,100414.66
2022-10-29T22:03:46.546Z,100418.72
2022-10-29T22:06:16.391Z,100433.03
2022-10-29T22:08:47.077Z,100423.06
2022-10-29T22:11:18.338Z,100423.00
2022-10-29T22:13:47.147Z,100429.66
2022-10-29T22:16:15.852Z,100420.47
2022-10-29T22:18:44.687Z,100424.25
2022-10-29T22:21:15.269Z,100431.88
2022-10-29T22:23:46.624Z,100432.28
2022-10-29T22:26:16.604Z,100421.06
2022-10-29T22:28:47.241Z,100420.25
2022-10-29T22:31:17.734Z,100425.97
2022-10-29T22:33:47.484Z,100416.94
2022-10-29T22:36:17.691Z,100406.56
2022-10-29T22:38:47.667Z,100445.25
2022-10-29T22:41:26.235Z,100443.03
2022-10-29T22:43:55.102Z,100446.66
2022-10-29T22:46:23.984Z,100442.63
2022-10-29T22:48:52.488Z,100441.66
2022-10-29T22:51:22.783Z,100451.41
2022-10-29T22:53:53.496Z,100432.22
2022-10-29T22:56:24.455Z,100446.66
2022-10-29T22:58:53.389Z,100435.53
2022-10-29T23:01:24.353Z,100435.25
2022-10-29T23:03:53.798Z,100442.19
2022-10-29T23:06:24.240Z,100441.34
2022-10-29T23:08:55.474Z,100446.09
2022-10-29T23:11:25.618Z,100430.03
2022-10-29T23:13:55.440Z,100430.28
2022-10-29T23:16:25.047Z,100441.50
2022-10-29T23:18:55.095Z,100443.81
2022-10-29T23:21:24.063Z,100441.59
2022-10-29T23:23:55.118Z,100438.25
2022-10-29T23:26:24.992Z,100436.25
2022-10-29T23:28:54.466Z,100432.22
2022-10-29T23:31:24.963Z,100427.94
2022-10-29T23:33:55.493Z,100421.44
2022-10-29T23:36:26.185Z,100420.75
2022-10-29T23:39:01.102Z,100408.38
2022-10-29T23:41:31.823Z,100412.69
2022-10-29T23:44:00.520Z,100412.38
2022-10-29T23:46:29.015Z,100416.03
2022-10-29T23:48:57.710Z,100390.75
2022-10-29T23:51:26.172Z,100399.06
2022-10-29T23:53:57.489Z,100405.75
2022-10-29T23:56:27.940Z,100392.81
2022-10-29T23:58:56.623Z,100394.00
